Sarah — WDI4859 — position and weather

sailwx.info

Track history (hours):
 
Tides and Currents Weather Stations Pressure Air Temp Water Temp Dewpoint Dewpoint Depression Visibility Wind Speed Wind Dir Waves Ship Positions

Sarah

Owner: Brusco Tug & Barge, Inc., Longview, WA. More information available from US FCC via Universal Licensing System and Coast Guard Vessel Documentation Center.

Last reported at 2018-Jun-25 15:30 UTC. Time now 2018-Jun-25 15:42 UTC.
Position N 33°44' W 118°12'.

Length 24 m.

Type: Tug. MMSI: 367702770.

Date/timePositionNaut miles runAvg speedWind from/ knotsBaromVisibWave heightAir tempDewpointWater temp
2018-Jun-25 15:30N 33°44' W 118°12'1 1.4
2018-Jun-25 15:01N 33°44' W 118°13'1 2.1
2018-Jun-25 14:30N 33°45' W 118°13'1 3.0
2018-Jun-25 14:01N 33°46' W 118°15'0 0.7
2018-Jun-25 13:30N 33°46' W 118°15'1 2.4
2018-Jun-25 13:00N 33°45' W 118°16'3 5.3
2018-Jun-25 12:30N 33°43' W 118°14'1 2.5
2018-Jun-25 12:00N 33°44' W 118°13'1 2.1
2018-Jun-25 11:29N 33°43' W 118°14'2 4.1
2018-Jun-25 10:57N 33°44' W 118°17'0 0.0
2018-Jun-25 10:29N 33°44' W 118°17'0 0.0
2018-Jun-25 09:57N 33°44' W 118°17'0 0.0
2018-Jun-25 09:25N 33°44' W 118°17'0 0.0
2018-Jun-25 08:59N 33°44' W 118°17'0 0.0
2018-Jun-25 08:27N 33°44' W 118°17'0 0.0
2018-Jun-25 08:00N 33°44' W 118°17'0 0.0
2018-Jun-25 07:30N 33°44' W 118°17'0 0.0
2018-Jun-25 06:57N 33°44' W 118°17'0 0.0
2018-Jun-25 06:28N 33°44' W 118°17'0 0.0
2018-Jun-25 05:59N 33°44' W 118°17'0 0.0
2018-Jun-25 05:30N 33°44' W 118°17'0 0.0
2018-Jun-25 04:59N 33°44' W 118°17'0 0.0
2018-Jun-25 04:27N 33°44' W 118°17'0 0.0
2018-Jun-25 03:56N 33°44' W 118°17'0 0.0
2018-Jun-25 03:27N 33°44' W 118°17'0 0.0
2018-Jun-25 03:00N 33°44' W 118°17'0 0.0
2018-Jun-25 02:30N 33°44' W 118°17'0 0.0
2018-Jun-25 02:01N 33°44' W 118°17'0 0.0
2018-Jun-25 01:30N 33°44' W 118°17'0 0.0
2018-Jun-25 01:00N 33°44' W 118°17'0 0.0
2018-Jun-25 00:30N 33°44' W 118°17'0 0.0
2018-Jun-25 00:00N 33°44' W 118°17'0 0.0
2018-Jun-24 23:30N 33°44' W 118°17'0 0.0
2018-Jun-24 23:00N 33°44' W 118°17'0 0.0
2018-Jun-24 22:30N 33°44' W 118°17'0 0.0
2018-Jun-24 22:00N 33°44' W 118°17'0 0.0
2018-Jun-24 17:47N 33°44' W 118°17'0 0.0
2018-Jun-24 17:30N 33°44' W 118°17'0 0.0
2018-Jun-24 17:01N 33°44' W 118°17'0 0.0
2018-Jun-24 16:29N 33°44' W 118°17'0 0.0
2018-Jun-24 16:01N 33°44' W 118°17'0 0.0
2018-Jun-24 15:26N 33°44' W 118°17'0 0.0
2018-Jun-24 15:00N 33°44' W 118°17'0 0.0
2018-Jun-24 14:30N 33°44' W 118°17'0 0.0
2018-Jun-24 14:01N 33°44' W 118°17'0 0.0
2018-Jun-24 13:30N 33°44' W 118°17'1 2.0
2018-Jun-24 13:01N 33°45' W 118°16'0 0.6
2018-Jun-24 12:31N 33°45' W 118°16'1 2.9
2018-Jun-24 12:01N 33°44' W 118°16'2 3.4
2018-Jun-24 11:31N 33°43' W 118°14'2 3.2
2018-Jun-24 11:00N 33°44' W 118°16'0 0.7
2018-Jun-24 10:30N 33°44' W 118°17'0 0.0
2018-Jun-24 09:57N 33°44' W 118°17'0 0.0
2018-Jun-24 09:25N 33°44' W 118°17'0 0.0
2018-Jun-24 09:00N 33°44' W 118°17'0 0.0
2018-Jun-24 08:30N 33°44' W 118°17'0 0.0
2018-Jun-24 07:50N 33°44' W 118°17'0 0.0
2018-Jun-24 07:26N 33°44' W 118°17'0 0.0
2018-Jun-24 06:58N 33°44' W 118°17'0 0.0
2018-Jun-24 06:27N 33°44' W 118°17'0 0.0
2018-Jun-24 05:52N 33°44' W 118°17'0 0.0
2018-Jun-24 05:26N 33°44' W 118°17'0 0.0
2018-Jun-24 05:00N 33°44' W 118°17'0 0.0
2018-Jun-24 04:25N 33°44' W 118°17'0 0.0
2018-Jun-24 03:59N 33°44' W 118°17'0 0.0
2018-Jun-24 03:31N 33°44' W 118°17'0 0.0
2018-Jun-24 03:00N 33°44' W 118°17'0 0.0
2018-Jun-24 02:30N 33°44' W 118°17'2 3.3
2018-Jun-24 01:59N 33°43' W 118°15'3 6.5
2018-Jun-24 01:30N 33°46' W 118°13'1 2.0
2018-Jun-24 01:00N 33°46' W 118°14'0 0.2
2018-Jun-24 00:31N 33°46' W 118°14'2 4.4
2018-Jun-24 00:00N 33°44' W 118°14'2 4.7
2018-Jun-23 23:30N 33°44' W 118°17'0 0.0
2018-Jun-23 23:01N 33°44' W 118°17'0 0.0
2018-Jun-23 22:30N 33°44' W 118°17'0 0.0
2018-Jun-23 22:01N 33°44' W 118°17'0 0.0
2018-Jun-23 15:29N 33°44' W 118°17'0 0.6
2018-Jun-23 15:00N 33°44' W 118°17'1 2.9
2018-Jun-23 14:31N 33°46' W 118°17'0 0.0
2018-Jun-23 14:00N 33°46' W 118°17'1 1.7
2018-Jun-23 13:30N 33°45' W 118°16'1 1.7
2018-Jun-23 12:58N 33°44' W 118°17'0 0.0
2018-Jun-23 12:30N 33°44' W 118°17'0 0.0
2018-Jun-23 11:39N 33°44' W 118°17'0 0.0
2018-Jun-23 11:26N 33°44' W 118°17'0 0.0
2018-Jun-23 10:44N 33°44' W 118°17'0 0.0
2018-Jun-23 10:13N 33°44' W 118°17'0 0.0
2018-Jun-23 09:59N 33°44' W 118°17'0 0.0
2018-Jun-23 09:20N 33°44' W 118°17'0 0.0
2018-Jun-23 09:00N 33°44' W 118°17'0 0.0
2018-Jun-23 08:30N 33°44' W 118°17'0 0.0
2018-Jun-23 07:58N 33°44' W 118°17'0 0.0
2018-Jun-23 07:25N 33°44' W 118°17'0 0.0
2018-Jun-23 06:56N 33°44' W 118°17'0 0.0
2018-Jun-23 06:30N 33°44' W 118°17'0 0.0
2018-Jun-23 05:58N 33°44' W 118°17'0 0.0
2018-Jun-23 05:30N 33°44' W 118°17'0 0.2
2018-Jun-23 05:01N 33°44' W 118°16'2 3.2
2018-Jun-23 04:30N 33°45' W 118°17'0 0.0
2018-Jun-23 04:00N 33°45' W 118°17'0 0.0
2018-Jun-23 03:31N 33°45' W 118°17'2 2.9
2018-Jun-23 02:59N 33°44' W 118°17'0 0.0
2018-Jun-23 02:28N 33°44' W 118°17'0 0.0
2018-Jun-23 02:00N 33°44' W 118°17'0 0.0
2018-Jun-23 01:30N 33°44' W 118°17'1 1.9
2018-Jun-23 00:59N 33°43' W 118°16'3 6.6
2018-Jun-23 00:30N 33°45' W 118°13'0 0.0
2018-Jun-23 00:00N 33°45' W 118°13'0 0.0
2018-Jun-22 23:30N 33°45' W 118°13'0 0.2
2018-Jun-22 23:00N 33°45' W 118°13'2 3.1
2018-Jun-22 22:30N 33°44' W 118°12'0 0.6
2018-Jun-22 22:00N 33°44' W 118°12'0 0.1
2018-Jun-22 21:30N 33°44' W 118°12'2 3.9
2018-Jun-22 21:00N 33°43' W 118°14'2 3.6
2018-Jun-22 20:27N 33°44' W 118°17'0 0.0
2018-Jun-22 19:59N 33°44' W 118°17'0 0.0
2018-Jun-22 19:30N 33°44' W 118°17'0 0.0
2018-Jun-22 19:00N 33°44' W 118°17'0 0.0
2018-Jun-22 18:29N 33°44' W 118°17'0 0.0
2018-Jun-22 17:59N 33°44' W 118°17'0 0.0
2018-Jun-22 17:29N 33°44' W 118°17'0 0.0
2018-Jun-22 17:00N 33°44' W 118°17'0 0.0
2018-Jun-22 16:30N 33°44' W 118°17'0 0.0
2018-Jun-22 15:58N 33°44' W 118°17'0 0.0
2018-Jun-22 15:30N 33°44' W 118°17'0 0.0
2018-Jun-22 15:00N 33°44' W 118°17'0 0.0
2018-Jun-22 14:29N 33°44' W 118°17'0 0.0
2018-Jun-22 14:00N 33°44' W 118°17'0 0.0
2018-Jun-22 13:29N 33°44' W 118°17'0 0.0
2018-Jun-22 13:00N 33°44' W 118°17'0 0.0
2018-Jun-22 12:28N 33°44' W 118°17'0 0.0
2018-Jun-22 12:00N 33°44' W 118°17'0 0.0
2018-Jun-22 11:30N 33°44' W 118°17'0 0.0
2018-Jun-22 11:00N 33°44' W 118°17'0 0.0
2018-Jun-22 10:30N 33°44' W 118°17'0 0.0
2018-Jun-22 10:00N 33°44' W 118°17'0 0.0
2018-Jun-22 09:30N 33°44' W 118°17'0 0.0
2018-Jun-22 09:00N 33°44' W 118°17'0 0.0
2018-Jun-22 08:28N 33°44' W 118°17'0 0.0
2018-Jun-22 08:00N 33°44' W 118°17'0 0.0
2018-Jun-22 07:30N 33°44' W 118°17'0 0.0
2018-Jun-22 07:00N 33°44' W 118°17'0 0.0
2018-Jun-22 06:30N 33°44' W 118°17'0 0.0
2018-Jun-22 05:58N 33°44' W 118°17'0 0.0
2018-Jun-22 05:30N 33°44' W 118°17'0 0.0
2018-Jun-22 05:00N 33°44' W 118°17'0 0.0
2018-Jun-22 04:25N 33°44' W 118°17'0 0.0
2018-Jun-22 03:58N 33°44' W 118°17'0 0.0
2018-Jun-22 03:19N 33°44' W 118°17'0 0.0
2018-Jun-22 03:00N 33°44' W 118°17'0 0.0
2018-Jun-22 02:30N 33°44' W 118°17'0 0.0
2018-Jun-22 02:00N 33°44' W 118°17'0 0.0
2018-Jun-22 01:30N 33°44' W 118°17'0 0.0
2018-Jun-22 01:00N 33°44' W 118°17'0 0.0
2018-Jun-22 00:29N 33°44' W 118°17'2 3.2
2018-Jun-22 00:00N 33°45' W 118°17'0 0.1
2018-Jun-21 23:31N 33°45' W 118°17'1 1.5
2018-Jun-21 23:00N 33°45' W 118°17'2 3.7
2018-Jun-21 22:30N 33°43' W 118°16'1 1.6
2018-Jun-21 22:00N 33°43' W 118°15'1 1.1
2018-Jun-21 21:30N 33°43' W 118°15'1 2.8
2018-Jun-21 21:00N 33°44' W 118°17'0 0.0
2018-Jun-21 20:30N 33°44' W 118°17'0 0.0
2018-Jun-21 20:00N 33°44' W 118°17'0 0.0
2018-Jun-21 19:30N 33°44' W 118°17'0 0.0
2018-Jun-21 19:00N 33°44' W 118°17'0 0.0
2018-Jun-21 18:30N 33°44' W 118°17'0 0.0
2018-Jun-21 18:00N 33°44' W 118°17'0 0.0
2018-Jun-21 17:30N 33°44' W 118°17'0 0.0
2018-Jun-21 17:00N 33°44' W 118°17'0 0.0
2018-Jun-21 16:30N 33°44' W 118°17'0 0.0
2018-Jun-21 16:00N 33°44' W 118°17'0 0.0
2018-Jun-21 15:30N 33°44' W 118°17'0 0.0
2018-Jun-21 15:00N 33°44' W 118°17'1 1.2
2018-Jun-21 14:29N 33°43' W 118°16'1 3.1
2018-Jun-21 14:00N 33°45' W 118°16'0 0.6
2018-Jun-21 13:30N 33°45' W 118°16'3 6.7
2018-Jun-21 13:00N 33°43' W 118°13'1 2.8
2018-Jun-21 12:30N 33°44' W 118°11'1 1.0
2018-Jun-21 12:00N 33°44' W 118°11'1 2.1
2018-Jun-21 11:30N 33°44' W 118°12'2 3.6
2018-Jun-21 10:59N 33°43' W 118°14'2 0.2
2018-Jun-21 00:01N 33°44' W 118°17'0 3.8
2018-Jun-21 00:00N 33°44' W 118°17'3 6.1
2018-Jun-20 23:30N 33°45' W 118°13'2 3.5
2018-Jun-20 23:00N 33°46' W 118°14'1 1.2
2018-Jun-20 22:30N 33°46' W 118°13'1 2.8
2018-Jun-20 22:00N 33°45' W 118°13'1 2.7
2018-Jun-20 21:30N 33°44' W 118°12'1 2.2
2018-Jun-20 21:01N 33°44' W 118°11'3 6.2
2018-Jun-20 20:30N 33°43' W 118°14'2 4.1
2018-Jun-20 20:00N 33°44' W 118°17'0 0.0
2018-Jun-20 19:30N 33°44' W 118°17'0 0.0
2018-Jun-20 19:00N 33°44' W 118°17'0 0.0
2018-Jun-20 18:30N 33°44' W 118°17'0 0.0
2018-Jun-20 18:00N 33°44' W 118°17'0 0.0
2018-Jun-20 17:30N 33°44' W 118°17'0 0.0
2018-Jun-20 17:00N 33°44' W 118°17'0 0.0
2018-Jun-20 16:30N 33°44' W 118°17'0 0.0
2018-Jun-20 16:00N 33°44' W 118°17'0 0.0
2018-Jun-20 15:30N 33°44' W 118°17'1 1.2
2018-Jun-20 15:00N 33°43' W 118°16'4 6.8
2018-Jun-20 14:29N 33°45' W 118°12'0 0.2
2018-Jun-20 14:00N 33°45' W 118°12'1 2.8
2018-Jun-20 13:30N 33°44' W 118°11'4 8.2
2018-Jun-20 12:59N 33°43' W 118°16'2 3.3
2018-Jun-20 12:30N 33°45' W 118°16'0 0.2
2018-Jun-20 12:00N 33°45' W 118°16'2 4.9
2018-Jun-20 11:30N 33°43' W 118°15'2 3.6
2018-Jun-20 10:59N 33°44' W 118°17'0 0.0
2018-Jun-20 10:30N 33°44' W 118°17'0 0.0
2018-Jun-20 09:59N 33°44' W 118°17'0 0.0
2018-Jun-20 09:29N 33°44' W 118°17'0 0.0
2018-Jun-20 09:00N 33°44' W 118°17'0 0.0
2018-Jun-20 08:30N 33°44' W 118°17'0 0.0
2018-Jun-20 08:00N 33°44' W 118°17'0 0.0
2018-Jun-20 07:30N 33°44' W 118°17'0 0.0
2018-Jun-20 06:59N 33°44' W 118°17'0 0.0
2018-Jun-20 06:28N 33°44' W 118°17'0 0.0
2018-Jun-20 05:58N 33°44' W 118°17'0 0.0
2018-Jun-20 05:30N 33°44' W 118°17'0 0.0
2018-Jun-20 04:59N 33°44' W 118°17'0 0.0
2018-Jun-20 04:28N 33°44' W 118°17'0 0.0
2018-Jun-20 03:59N 33°44' W 118°17'0 0.0
2018-Jun-20 03:29N 33°44' W 118°17'0 0.0
2018-Jun-20 03:00N 33°44' W 118°17'0 0.0
2018-Jun-20 02:30N 33°44' W 118°17'0 0.0
2018-Jun-20 02:00N 33°44' W 118°17'0 0.0
2018-Jun-20 01:30N 33°44' W 118°17'0 0.0
2018-Jun-20 01:00N 33°44' W 118°17'0 0.0
2018-Jun-20 00:30N 33°44' W 118°17'0 0.0
2018-Jun-20 00:00N 33°44' W 118°17'0 0.0
2018-Jun-19 23:30N 33°44' W 118°17'0 0.0
2018-Jun-19 23:00N 33°44' W 118°17'0 0.0
2018-Jun-19 22:30N 33°44' W 118°17'0 0.0
2018-Jun-19 22:00N 33°44' W 118°17'0 0.0
2018-Jun-19 21:28N 33°44' W 118°17'0 0.0
2018-Jun-19 21:00N 33°44' W 118°17'0 0.0
2018-Jun-19 20:30N 33°44' W 118°17'0 0.0
2018-Jun-19 20:00N 33°44' W 118°17'0 0.0
2018-Jun-19 19:30N 33°44' W 118°17'0 0.0
2018-Jun-19 19:00N 33°44' W 118°17'0 0.0
2018-Jun-19 18:30N 33°44' W 118°17'0 0.0
2018-Jun-19 18:00N 33°44' W 118°17'0 0.0
2018-Jun-19 17:30N 33°44' W 118°17'0 0.0
2018-Jun-19 16:59N 33°44' W 118°17'0 0.0
2018-Jun-19 16:30N 33°44' W 118°17'0 0.0
2018-Jun-19 15:57N 33°44' W 118°17'0 0.0
2018-Jun-19 15:28N 33°44' W 118°17'0 0.2
2018-Jun-19 14:59N 33°44' W 118°16'0 0.2
2018-Jun-19 14:30N 33°44' W 118°17'0 0.0
2018-Jun-19 14:00N 33°44' W 118°17'0 0.0
2018-Jun-19 13:30N 33°44' W 118°17'0 0.0
2018-Jun-19 13:00N 33°44' W 118°17'0 0.0
2018-Jun-19 12:30N 33°44' W 118°17'0 0.0
2018-Jun-19 11:59N 33°44' W 118°17'0 0.0
2018-Jun-19 11:28N 33°44' W 118°17'0 0.0
2018-Jun-19 10:59N 33°44' W 118°17'0 0.0
2018-Jun-19 10:29N 33°44' W 118°17'0 0.0
2018-Jun-19 09:59N 33°44' W 118°17'0 0.0
2018-Jun-19 09:30N 33°44' W 118°17'0 0.0
2018-Jun-19 09:00N 33°44' W 118°17'0 0.0
2018-Jun-19 08:30N 33°44' W 118°17'0 0.0
2018-Jun-19 08:00N 33°44' W 118°17'0 0.0
2018-Jun-19 07:30N 33°44' W 118°17'3 6.6
2018-Jun-19 07:00N 33°44' W 118°13'0 0.1
2018-Jun-19 06:30N 33°43' W 118°13'3 6.5
2018-Jun-19 06:00N 33°44' W 118°17'0 0.2
2018-Jun-19 05:30N 33°44' W 118°17'0 0.0
2018-Jun-19 05:00N 33°44' W 118°17'0 0.0
2018-Jun-19 04:29N 33°44' W 118°17'0 0.0
2018-Jun-19 03:56N 33°44' W 118°17'0 0.0
2018-Jun-19 03:26N 33°44' W 118°17'0 0.0
2018-Jun-19 03:00N 33°44' W 118°17'0 0.0
2018-Jun-19 02:30N 33°44' W 118°17'0 0.0
2018-Jun-19 02:00N 33°44' W 118°17'1 1.3
2018-Jun-19 01:30N 33°44' W 118°17'1 2.4
2018-Jun-19 01:00N 33°46' W 118°16'0 0.3
2018-Jun-19 00:30N 33°45' W 118°16'0 0.7
2018-Jun-19 00:00N 33°46' W 118°17'0 0.1
2018-Jun-18 23:30N 33°45' W 118°17'2 3.1
2018-Jun-18 23:00N 33°44' W 118°16'2 3.3
2018-Jun-18 22:30N 33°43' W 118°15'1 1.3
2018-Jun-18 22:00N 33°43' W 118°16'2 3.5
2018-Jun-18 21:30N 33°45' W 118°16'0 0.7
2018-Jun-18 21:01N 33°45' W 118°16'1 2.1
2018-Jun-18 20:30N 33°44' W 118°17'2 4.0
2018-Jun-18 20:00N 33°43' W 118°15'1 1.9
2018-Jun-18 19:30N 33°43' W 118°16'1 1.9
2018-Jun-18 19:00N 33°44' W 118°17'0 0.0
2018-Jun-18 18:30N 33°44' W 118°17'0 0.0
2018-Jun-18 18:00N 33°44' W 118°17'0 0.0
2018-Jun-18 17:30N 33°44' W 118°17'0 0.0
2018-Jun-18 17:00N 33°44' W 118°17'0 0.0
2018-Jun-18 16:29N 33°44' W 118°17'0 0.0
2018-Jun-18 16:00N 33°44' W 118°17'1 2.8
2018-Jun-18 15:30N 33°45' W 118°16'0 0.1
2018-Jun-18 15:00N 33°45' W 118°16'1 1.1
2018-Jun-18 14:30N 33°45' W 118°16'1 1.8
2018-Jun-18 14:00N 33°44' W 118°17'0 0.0
2018-Jun-18 13:30N 33°44' W 118°17'0 0.0
2018-Jun-18 13:00N 33°44' W 118°17'0 0.0
2018-Jun-18 12:30N 33°44' W 118°17'0 0.0
2018-Jun-18 12:00N 33°44' W 118°17'0 0.0
2018-Jun-18 11:30N 33°44' W 118°17'0 0.0
2018-Jun-18 11:00N 33°44' W 118°17'0 0.0
2018-Jun-18 10:29N 33°44' W 118°17'0 0.0
2018-Jun-18 09:58N 33°44' W 118°17'0 0.0
2018-Jun-18 09:30N 33°44' W 118°17'0 0.0
2018-Jun-18 08:59N 33°44' W 118°17'0 0.0
2018-Jun-18 08:30N 33°44' W 118°17'0 0.0
2018-Jun-18 07:59N 33°44' W 118°17'0 0.0
2018-Jun-18 07:30N 33°44' W 118°17'0 0.0
2018-Jun-18 07:00N 33°44' W 118°17'0 0.0
2018-Jun-18 06:30N 33°44' W 118°17'0 0.0
2018-Jun-18 05:57N 33°44' W 118°17'0 0.0
2018-Jun-18 05:29N 33°44' W 118°17'0 0.0
2018-Jun-18 04:20N 33°44' W 118°17'0 0.0
2018-Jun-18 03:05N 33°44' W 118°17'0 0.0
2018-Jun-18 03:00N 33°44' W 118°17'2 3.7
2018-Jun-18 02:30N 33°43' W 118°15'3 5.2
2018-Jun-18 02:00N 33°45' W 118°12'1 2.6
2018-Jun-18 01:30N 33°44' W 118°13'3 5.4
2018-Jun-18 01:00N 33°44' W 118°17'0 0.0
2018-Jun-18 00:30N 33°44' W 118°17'0 0.0
2018-Jun-18 00:00N 33°44' W 118°17'0 0.0
2018-Jun-17 23:30N 33°44' W 118°17'0 0.0
2018-Jun-17 23:00N 33°44' W 118°17'0 0.0
2018-Jun-17 22:30N 33°44' W 118°17'0 0.0
2018-Jun-17 21:58N 33°44' W 118°17'0 0.0
2018-Jun-17 21:30N 33°44' W 118°17'0 0.0
2018-Jun-17 21:00N 33°44' W 118°17'0 0.0
2018-Jun-17 20:30N 33°44' W 118°17'0 0.0
2018-Jun-17 20:00N 33°44' W 118°17'0 0.0
2018-Jun-17 19:30N 33°44' W 118°17'0 0.0
2018-Jun-17 18:59N 33°44' W 118°17'0 0.0
2018-Jun-17 18:30N 33°44' W 118°17'0 0.0
2018-Jun-17 17:59N 33°44' W 118°17'0 0.0
2018-Jun-17 17:30N 33°44' W 118°17'0 0.0
2018-Jun-17 17:00N 33°44' W 118°17'0 0.0
2018-Jun-17 16:27N 33°44' W 118°17'0 0.0
2018-Jun-17 16:00N 33°44' W 118°17'0 0.0
2018-Jun-17 15:30N 33°44' W 118°17'0 0.0
2018-Jun-17 15:00N 33°44' W 118°17'1 2.0
2018-Jun-17 14:30N 33°45' W 118°16'0 0.6
2018-Jun-17 14:00N 33°45' W 118°16'1 2.8
2018-Jun-17 13:30N 33°44' W 118°16'2 3.2
2018-Jun-17 13:01N 33°43' W 118°15'3 6.9
2018-Jun-17 12:30N 33°44' W 118°11'1 1.0
2018-Jun-17 12:00N 33°44' W 118°12'1 1.1
2018-Jun-17 11:30N 33°44' W 118°12'0 0.0
2018-Jun-17 11:00N 33°44' W 118°12'1 1.7
2018-Jun-17 10:30N 33°44' W 118°13'3 6.0
2018-Jun-17 10:00N 33°44' W 118°16'0 0.3
2018-Jun-17 09:30N 33°44' W 118°17'0 0.0
2018-Jun-17 09:00N 33°44' W 118°17'0 0.0
2018-Jun-17 08:29N 33°44' W 118°17'0 0.0
2018-Jun-17 08:00N 33°44' W 118°17'0 0.0
2018-Jun-17 07:30N 33°44' W 118°17'0 0.0
2018-Jun-17 06:58N 33°44' W 118°17'0 0.0
2018-Jun-17 06:30N 33°44' W 118°17'0 0.0
2018-Jun-17 05:51N 33°44' W 118°17'0 0.0
2018-Jun-17 05:30N 33°44' W 118°17'0 0.0
2018-Jun-17 05:00N 33°44' W 118°17'0 0.0
2018-Jun-17 04:28N 33°44' W 118°17'0 0.0
2018-Jun-17 04:00N 33°44' W 118°17'0 0.0
2018-Jun-17 03:27N 33°44' W 118°17'0 0.0
2018-Jun-17 03:00N 33°44' W 118°17'0 0.0
2018-Jun-17 02:29N 33°44' W 118°17'2 4.3
2018-Jun-17 02:00N 33°43' W 118°14'3 5.8
2018-Jun-17 01:30N 33°46' W 118°13'1 1.5
2018-Jun-17 01:00N 33°46' W 118°14'0 0.1
2018-Jun-17 00:30N 33°46' W 118°14'3 5.5
2018-Jun-17 00:00N 33°43' W 118°14'2 4.7
2018-Jun-16 23:30N 33°44' W 118°17'0 0.0
2018-Jun-16 23:00N 33°44' W 118°17'0 0.0
2018-Jun-16 22:30N 33°44' W 118°17'0 0.0
2018-Jun-16 22:00N 33°44' W 118°17'0 0.0
2018-Jun-16 21:30N 33°44' W 118°17'0 0.0
2018-Jun-16 20:59N 33°44' W 118°17'0 0.0
2018-Jun-16 20:29N 33°44' W 118°17'0 0.0
2018-Jun-16 20:00N 33°44' W 118°17'0 0.0
2018-Jun-16 19:30N 33°44' W 118°17'0 0.0
2018-Jun-16 19:00N 33°44' W 118°17'0 0.0
2018-Jun-16 18:30N 33°44' W 118°17'0 0.0
2018-Jun-16 18:00N 33°44' W 118°17'0 0.0
2018-Jun-16 17:30N 33°44' W 118°17'0 0.0
2018-Jun-16 16:58N 33°44' W 118°17'0 0.0
2018-Jun-16 16:30N 33°44' W 118°17'0 0.0
2018-Jun-16 16:00N 33°44' W 118°17'0 0.0
2018-Jun-16 15:30N 33°44' W 118°17'1 1.9
2018-Jun-16 15:00N 33°45' W 118°16'1 2.4
2018-Jun-16 14:30N 33°46' W 118°16'0 0.1
2018-Jun-16 14:00N 33°46' W 118°16'1 1.7
2018-Jun-16 13:30N 33°45' W 118°16'1 0.1
2018-Jun-16 02:10N 33°44' W 118°17'0 0.0
2018-Jun-16 02:00N 33°44' W 118°17'0 0.0
2018-Jun-16 01:30N 33°44' W 118°17'0 0.0
2018-Jun-16 01:00N 33°44' W 118°17'0 0.0
2018-Jun-16 00:30N 33°44' W 118°17'0 0.0
2018-Jun-16 00:00N 33°44' W 118°17'0 0.0
2018-Jun-15 23:30N 33°44' W 118°17'0 0.0
2018-Jun-15 22:58N 33°44' W 118°17'0 0.0
2018-Jun-15 22:29N 33°44' W 118°17'0 0.0
2018-Jun-15 22:00N 33°44' W 118°17'0 0.0
2018-Jun-15 21:30N 33°44' W 118°17'0 0.0
2018-Jun-15 21:00N 33°44' W 118°17'0 0.0
2018-Jun-15 20:29N 33°44' W 118°17'0 0.0
2018-Jun-15 20:00N 33°44' W 118°17'0 0.0
2018-Jun-15 19:28N 33°44' W 118°17'0 0.0
2018-Jun-15 18:59N 33°44' W 118°17'0 0.0
2018-Jun-15 18:29N 33°44' W 118°17'0 0.0
2018-Jun-15 18:00N 33°44' W 118°17'0 0.0
2018-Jun-15 17:30N 33°44' W 118°17'0 0.0
2018-Jun-15 16:59N 33°44' W 118°17'0 0.0
2018-Jun-15 16:31N 33°44' W 118°17'0 0.0
2018-Jun-15 16:00N 33°44' W 118°17'  
Track history (hours):
 
Tides and Currents Weather Stations Pressure Air Temp Water Temp Dewpoint Dewpoint Depression Visibility Wind Speed Wind Dir Waves Ship Positions

Sarah

Owner: Brusco Tug & Barge, Inc., Longview, WA. More information available from US FCC via Universal Licensing System and Coast Guard Vessel Documentation Center.

Last reported at 2018-Jun-25 15:30 UTC. Time now 2018-Jun-25 15:42 UTC.
Position N 33°44' W 118°12'.

Length 24 m.

Type: Tug. MMSI: 367702770.

Date/timePositionNaut miles runAvg speedWind from/ knotsBaromVisibWave heightAir tempDewpointWater temp
2018-Jun-25 15:30N 33°44' W 118°12'1 1.4
2018-Jun-25 15:01N 33°44' W 118°13'1 2.1
2018-Jun-25 14:30N 33°45' W 118°13'1 3.0
2018-Jun-25 14:01N 33°46' W 118°15'0 0.7
2018-Jun-25 13:30N 33°46' W 118°15'1 2.4
2018-Jun-25 13:00N 33°45' W 118°16'3 5.3
2018-Jun-25 12:30N 33°43' W 118°14'1 2.5
2018-Jun-25 12:00N 33°44' W 118°13'1 2.1
2018-Jun-25 11:29N 33°43' W 118°14'2 4.1
2018-Jun-25 10:57N 33°44' W 118°17'0 0.0
2018-Jun-25 10:29N 33°44' W 118°17'0 0.0
2018-Jun-25 09:57N 33°44' W 118°17'0 0.0
2018-Jun-25 09:25N 33°44' W 118°17'0 0.0
2018-Jun-25 08:59N 33°44' W 118°17'0 0.0
2018-Jun-25 08:27N 33°44' W 118°17'0 0.0
2018-Jun-25 08:00N 33°44' W 118°17'0 0.0
2018-Jun-25 07:30N 33°44' W 118°17'0 0.0
2018-Jun-25 06:57N 33°44' W 118°17'0 0.0
2018-Jun-25 06:28N 33°44' W 118°17'0 0.0
2018-Jun-25 05:59N 33°44' W 118°17'0 0.0
2018-Jun-25 05:30N 33°44' W 118°17'0 0.0
2018-Jun-25 04:59N 33°44' W 118°17'0 0.0
2018-Jun-25 04:27N 33°44' W 118°17'0 0.0
2018-Jun-25 03:56N 33°44' W 118°17'0 0.0
2018-Jun-25 03:27N 33°44' W 118°17'0 0.0
2018-Jun-25 03:00N 33°44' W 118°17'0 0.0
2018-Jun-25 02:30N 33°44' W 118°17'0 0.0
2018-Jun-25 02:01N 33°44' W 118°17'0 0.0
2018-Jun-25 01:30N 33°44' W 118°17'0 0.0
2018-Jun-25 01:00N 33°44' W 118°17'0 0.0
2018-Jun-25 00:30N 33°44' W 118°17'0 0.0
2018-Jun-25 00:00N 33°44' W 118°17'0 0.0
2018-Jun-24 23:30N 33°44' W 118°17'0 0.0
2018-Jun-24 23:00N 33°44' W 118°17'0 0.0
2018-Jun-24 22:30N 33°44' W 118°17'0 0.0
2018-Jun-24 22:00N 33°44' W 118°17'0 0.0
2018-Jun-24 17:47N 33°44' W 118°17'0 0.0
2018-Jun-24 17:30N 33°44' W 118°17'0 0.0
2018-Jun-24 17:01N 33°44' W 118°17'0 0.0
2018-Jun-24 16:29N 33°44' W 118°17'0 0.0
2018-Jun-24 16:01N 33°44' W 118°17'0 0.0
2018-Jun-24 15:26N 33°44' W 118°17'0 0.0
2018-Jun-24 15:00N 33°44' W 118°17'0 0.0
2018-Jun-24 14:30N 33°44' W 118°17'0 0.0
2018-Jun-24 14:01N 33°44' W 118°17'0 0.0
2018-Jun-24 13:30N 33°44' W 118°17'1 2.0
2018-Jun-24 13:01N 33°45' W 118°16'0 0.6
2018-Jun-24 12:31N 33°45' W 118°16'1 2.9
2018-Jun-24 12:01N 33°44' W 118°16'2 3.4
2018-Jun-24 11:31N 33°43' W 118°14'2 3.2
2018-Jun-24 11:00N 33°44' W 118°16'0 0.7
2018-Jun-24 10:30N 33°44' W 118°17'0 0.0
2018-Jun-24 09:57N 33°44' W 118°17'0 0.0
2018-Jun-24 09:25N 33°44' W 118°17'0 0.0
2018-Jun-24 09:00N 33°44' W 118°17'0 0.0
2018-Jun-24 08:30N 33°44' W 118°17'0 0.0
2018-Jun-24 07:50N 33°44' W 118°17'0 0.0
2018-Jun-24 07:26N 33°44' W 118°17'0 0.0
2018-Jun-24 06:58N 33°44' W 118°17'0 0.0
2018-Jun-24 06:27N 33°44' W 118°17'0 0.0
2018-Jun-24 05:52N 33°44' W 118°17'0 0.0
2018-Jun-24 05:26N 33°44' W 118°17'0 0.0
2018-Jun-24 05:00N 33°44' W 118°17'0 0.0
2018-Jun-24 04:25N 33°44' W 118°17'0 0.0
2018-Jun-24 03:59N 33°44' W 118°17'0 0.0
2018-Jun-24 03:31N 33°44' W 118°17'0 0.0
2018-Jun-24 03:00N 33°44' W 118°17'0 0.0
2018-Jun-24 02:30N 33°44' W 118°17'2 3.3
2018-Jun-24 01:59N 33°43' W 118°15'3 6.5
2018-Jun-24 01:30N 33°46' W 118°13'1 2.0
2018-Jun-24 01:00N 33°46' W 118°14'0 0.2
2018-Jun-24 00:31N 33°46' W 118°14'2 4.4
2018-Jun-24 00:00N 33°44' W 118°14'2 4.7
2018-Jun-23 23:30N 33°44' W 118°17'0 0.0
2018-Jun-23 23:01N 33°44' W 118°17'0 0.0
2018-Jun-23 22:30N 33°44' W 118°17'0 0.0
2018-Jun-23 22:01N 33°44' W 118°17'0 0.0
2018-Jun-23 15:29N 33°44' W 118°17'0 0.6
2018-Jun-23 15:00N 33°44' W 118°17'1 2.9
2018-Jun-23 14:31N 33°46' W 118°17'0 0.0
2018-Jun-23 14:00N 33°46' W 118°17'1 1.7
2018-Jun-23 13:30N 33°45' W 118°16'1 1.7
2018-Jun-23 12:58N 33°44' W 118°17'0 0.0
2018-Jun-23 12:30N 33°44' W 118°17'0 0.0
2018-Jun-23 11:39N 33°44' W 118°17'0 0.0
2018-Jun-23 11:26N 33°44' W 118°17'0 0.0
2018-Jun-23 10:44N 33°44' W 118°17'0 0.0
2018-Jun-23 10:13N 33°44' W 118°17'0 0.0
2018-Jun-23 09:59N 33°44' W 118°17'0 0.0
2018-Jun-23 09:20N 33°44' W 118°17'0 0.0
2018-Jun-23 09:00N 33°44' W 118°17'0 0.0
2018-Jun-23 08:30N 33°44' W 118°17'0 0.0
2018-Jun-23 07:58N 33°44' W 118°17'0 0.0
2018-Jun-23 07:25N 33°44' W 118°17'0 0.0
2018-Jun-23 06:56N 33°44' W 118°17'0 0.0
2018-Jun-23 06:30N 33°44' W 118°17'0 0.0
2018-Jun-23 05:58N 33°44' W 118°17'0 0.0
2018-Jun-23 05:30N 33°44' W 118°17'0 0.2
2018-Jun-23 05:01N 33°44' W 118°16'2 3.2
2018-Jun-23 04:30N 33°45' W 118°17'0 0.0
2018-Jun-23 04:00N 33°45' W 118°17'0 0.0
2018-Jun-23 03:31N 33°45' W 118°17'2 2.9
2018-Jun-23 02:59N 33°44' W 118°17'0 0.0
2018-Jun-23 02:28N 33°44' W 118°17'0 0.0
2018-Jun-23 02:00N 33°44' W 118°17'0 0.0
2018-Jun-23 01:30N 33°44' W 118°17'1 1.9
2018-Jun-23 00:59N 33°43' W 118°16'3 6.6
2018-Jun-23 00:30N 33°45' W 118°13'0 0.0
2018-Jun-23 00:00N 33°45' W 118°13'0 0.0
2018-Jun-22 23:30N 33°45' W 118°13'0 0.2
2018-Jun-22 23:00N 33°45' W 118°13'2 3.1
2018-Jun-22 22:30N 33°44' W 118°12'0 0.6
2018-Jun-22 22:00N 33°44' W 118°12'0 0.1
2018-Jun-22 21:30N 33°44' W 118°12'2 3.9
2018-Jun-22 21:00N 33°43' W 118°14'2 3.6
2018-Jun-22 20:27N 33°44' W 118°17'0 0.0
2018-Jun-22 19:59N 33°44' W 118°17'0 0.0
2018-Jun-22 19:30N 33°44' W 118°17'0 0.0
2018-Jun-22 19:00N 33°44' W 118°17'0 0.0
2018-Jun-22 18:29N 33°44' W 118°17'0 0.0
2018-Jun-22 17:59N 33°44' W 118°17'0 0.0
2018-Jun-22 17:29N 33°44' W 118°17'0 0.0
2018-Jun-22 17:00N 33°44' W 118°17'0 0.0
2018-Jun-22 16:30N 33°44' W 118°17'0 0.0
2018-Jun-22 15:58N 33°44' W 118°17'0 0.0
2018-Jun-22 15:30N 33°44' W 118°17'0 0.0
2018-Jun-22 15:00N 33°44' W 118°17'0 0.0
2018-Jun-22 14:29N 33°44' W 118°17'0 0.0
2018-Jun-22 14:00N 33°44' W 118°17'0 0.0
2018-Jun-22 13:29N 33°44' W 118°17'0 0.0
2018-Jun-22 13:00N 33°44' W 118°17'0 0.0
2018-Jun-22 12:28N 33°44' W 118°17'0 0.0
2018-Jun-22 12:00N 33°44' W 118°17'0 0.0
2018-Jun-22 11:30N 33°44' W 118°17'0 0.0
2018-Jun-22 11:00N 33°44' W 118°17'0 0.0
2018-Jun-22 10:30N 33°44' W 118°17'0 0.0
2018-Jun-22 10:00N 33°44' W 118°17'0 0.0
2018-Jun-22 09:30N 33°44' W 118°17'0 0.0
2018-Jun-22 09:00N 33°44' W 118°17'0 0.0
2018-Jun-22 08:28N 33°44' W 118°17'0 0.0
2018-Jun-22 08:00N 33°44' W 118°17'0 0.0
2018-Jun-22 07:30N 33°44' W 118°17'0 0.0
2018-Jun-22 07:00N 33°44' W 118°17'0 0.0
2018-Jun-22 06:30N 33°44' W 118°17'0 0.0
2018-Jun-22 05:58N 33°44' W 118°17'0 0.0
2018-Jun-22 05:30N 33°44' W 118°17'0 0.0
2018-Jun-22 05:00N 33°44' W 118°17'0 0.0
2018-Jun-22 04:25N 33°44' W 118°17'0 0.0
2018-Jun-22 03:58N 33°44' W 118°17'0 0.0
2018-Jun-22 03:19N 33°44' W 118°17'0 0.0
2018-Jun-22 03:00N 33°44' W 118°17'0 0.0
2018-Jun-22 02:30N 33°44' W 118°17'0 0.0
2018-Jun-22 02:00N 33°44' W 118°17'0 0.0
2018-Jun-22 01:30N 33°44' W 118°17'0 0.0
2018-Jun-22 01:00N 33°44' W 118°17'0 0.0
2018-Jun-22 00:29N 33°44' W 118°17'2 3.2
2018-Jun-22 00:00N 33°45' W 118°17'0 0.1
2018-Jun-21 23:31N 33°45' W 118°17'1 1.5
2018-Jun-21 23:00N 33°45' W 118°17'2 3.7
2018-Jun-21 22:30N 33°43' W 118°16'1 1.6
2018-Jun-21 22:00N 33°43' W 118°15'1 1.1
2018-Jun-21 21:30N 33°43' W 118°15'1 2.8
2018-Jun-21 21:00N 33°44' W 118°17'0 0.0
2018-Jun-21 20:30N 33°44' W 118°17'0 0.0
2018-Jun-21 20:00N 33°44' W 118°17'0 0.0
2018-Jun-21 19:30N 33°44' W 118°17'0 0.0
2018-Jun-21 19:00N 33°44' W 118°17'0 0.0
2018-Jun-21 18:30N 33°44' W 118°17'0 0.0
2018-Jun-21 18:00N 33°44' W 118°17'0 0.0
2018-Jun-21 17:30N 33°44' W 118°17'0 0.0
2018-Jun-21 17:00N 33°44' W 118°17'0 0.0
2018-Jun-21 16:30N 33°44' W 118°17'0 0.0
2018-Jun-21 16:00N 33°44' W 118°17'0 0.0
2018-Jun-21 15:30N 33°44' W 118°17'0 0.0
2018-Jun-21 15:00N 33°44' W 118°17'1 1.2
2018-Jun-21 14:29N 33°43' W 118°16'1 3.1
2018-Jun-21 14:00N 33°45' W 118°16'0 0.6
2018-Jun-21 13:30N 33°45' W 118°16'3 6.7
2018-Jun-21 13:00N 33°43' W 118°13'1 2.8
2018-Jun-21 12:30N 33°44' W 118°11'1 1.0
2018-Jun-21 12:00N 33°44' W 118°11'1 2.1
2018-Jun-21 11:30N 33°44' W 118°12'2 3.6
2018-Jun-21 10:59N 33°43' W 118°14'2 0.2
2018-Jun-21 00:01N 33°44' W 118°17'0 3.8
2018-Jun-21 00:00N 33°44' W 118°17'3 6.1
2018-Jun-20 23:30N 33°45' W 118°13'2 3.5
2018-Jun-20 23:00N 33°46' W 118°14'1 1.2
2018-Jun-20 22:30N 33°46' W 118°13'1 2.8
2018-Jun-20 22:00N 33°45' W 118°13'1 2.7
2018-Jun-20 21:30N 33°44' W 118°12'1 2.2
2018-Jun-20 21:01N 33°44' W 118°11'3 6.2
2018-Jun-20 20:30N 33°43' W 118°14'2 4.1
2018-Jun-20 20:00N 33°44' W 118°17'0 0.0
2018-Jun-20 19:30N 33°44' W 118°17'0 0.0
2018-Jun-20 19:00N 33°44' W 118°17'0 0.0
2018-Jun-20 18:30N 33°44' W 118°17'0 0.0
2018-Jun-20 18:00N 33°44' W 118°17'0 0.0
2018-Jun-20 17:30N 33°44' W 118°17'0 0.0
2018-Jun-20 17:00N 33°44' W 118°17'0 0.0
2018-Jun-20 16:30N 33°44' W 118°17'0 0.0
2018-Jun-20 16:00N 33°44' W 118°17'0 0.0
2018-Jun-20 15:30N 33°44' W 118°17'1 1.2
2018-Jun-20 15:00N 33°43' W 118°16'4 6.8
2018-Jun-20 14:29N 33°45' W 118°12'0 0.2
2018-Jun-20 14:00N 33°45' W 118°12'1 2.8
2018-Jun-20 13:30N 33°44' W 118°11'4 8.2
2018-Jun-20 12:59N 33°43' W 118°16'2 3.3
2018-Jun-20 12:30N 33°45' W 118°16'0 0.2
2018-Jun-20 12:00N 33°45' W 118°16'2 4.9
2018-Jun-20 11:30N 33°43' W 118°15'2 3.6
2018-Jun-20 10:59N 33°44' W 118°17'0 0.0
2018-Jun-20 10:30N 33°44' W 118°17'0 0.0
2018-Jun-20 09:59N 33°44' W 118°17'0 0.0
2018-Jun-20 09:29N 33°44' W 118°17'0 0.0
2018-Jun-20 09:00N 33°44' W 118°17'0 0.0
2018-Jun-20 08:30N 33°44' W 118°17'0 0.0
2018-Jun-20 08:00N 33°44' W 118°17'0 0.0
2018-Jun-20 07:30N 33°44' W 118°17'0 0.0
2018-Jun-20 06:59N 33°44' W 118°17'0 0.0
2018-Jun-20 06:28N 33°44' W 118°17'0 0.0
2018-Jun-20 05:58N 33°44' W 118°17'0 0.0
2018-Jun-20 05:30N 33°44' W 118°17'0 0.0
2018-Jun-20 04:59N 33°44' W 118°17'0 0.0
2018-Jun-20 04:28N 33°44' W 118°17'0 0.0
2018-Jun-20 03:59N 33°44' W 118°17'0 0.0
2018-Jun-20 03:29N 33°44' W 118°17'0 0.0
2018-Jun-20 03:00N 33°44' W 118°17'0 0.0
2018-Jun-20 02:30N 33°44' W 118°17'0 0.0
2018-Jun-20 02:00N 33°44' W 118°17'0 0.0
2018-Jun-20 01:30N 33°44' W 118°17'0 0.0
2018-Jun-20 01:00N 33°44' W 118°17'0 0.0
2018-Jun-20 00:30N 33°44' W 118°17'0 0.0
2018-Jun-20 00:00N 33°44' W 118°17'0 0.0
2018-Jun-19 23:30N 33°44' W 118°17'0 0.0
2018-Jun-19 23:00N 33°44' W 118°17'0 0.0
2018-Jun-19 22:30N 33°44' W 118°17'0 0.0
2018-Jun-19 22:00N 33°44' W 118°17'0 0.0
2018-Jun-19 21:28N 33°44' W 118°17'0 0.0
2018-Jun-19 21:00N 33°44' W 118°17'0 0.0
2018-Jun-19 20:30N 33°44' W 118°17'0 0.0
2018-Jun-19 20:00N 33°44' W 118°17'0 0.0
2018-Jun-19 19:30N 33°44' W 118°17'0 0.0
2018-Jun-19 19:00N 33°44' W 118°17'0 0.0
2018-Jun-19 18:30N 33°44' W 118°17'0 0.0
2018-Jun-19 18:00N 33°44' W 118°17'0 0.0
2018-Jun-19 17:30N 33°44' W 118°17'0 0.0
2018-Jun-19 16:59N 33°44' W 118°17'0 0.0
2018-Jun-19 16:30N 33°44' W 118°17'0 0.0
2018-Jun-19 15:57N 33°44' W 118°17'0 0.0
2018-Jun-19 15:28N 33°44' W 118°17'0 0.2
2018-Jun-19 14:59N 33°44' W 118°16'0 0.2
2018-Jun-19 14:30N 33°44' W 118°17'0 0.0
2018-Jun-19 14:00N 33°44' W 118°17'0 0.0
2018-Jun-19 13:30N 33°44' W 118°17'0 0.0
2018-Jun-19 13:00N 33°44' W 118°17'0 0.0
2018-Jun-19 12:30N 33°44' W 118°17'0 0.0
2018-Jun-19 11:59N 33°44' W 118°17'0 0.0
2018-Jun-19 11:28N 33°44' W 118°17'0 0.0
2018-Jun-19 10:59N 33°44' W 118°17'0 0.0
2018-Jun-19 10:29N 33°44' W 118°17'0 0.0
2018-Jun-19 09:59N 33°44' W 118°17'0 0.0
2018-Jun-19 09:30N 33°44' W 118°17'0 0.0
2018-Jun-19 09:00N 33°44' W 118°17'0 0.0
2018-Jun-19 08:30N 33°44' W 118°17'0 0.0
2018-Jun-19 08:00N 33°44' W 118°17'0 0.0
2018-Jun-19 07:30N 33°44' W 118°17'3 6.6
2018-Jun-19 07:00N 33°44' W 118°13'0 0.1
2018-Jun-19 06:30N 33°43' W 118°13'3 6.5
2018-Jun-19 06:00N 33°44' W 118°17'0 0.2
2018-Jun-19 05:30N 33°44' W 118°17'0 0.0
2018-Jun-19 05:00N 33°44' W 118°17'0 0.0
2018-Jun-19 04:29N 33°44' W 118°17'0 0.0
2018-Jun-19 03:56N 33°44' W 118°17'0 0.0
2018-Jun-19 03:26N 33°44' W 118°17'0 0.0
2018-Jun-19 03:00N 33°44' W 118°17'0 0.0
2018-Jun-19 02:30N 33°44' W 118°17'0 0.0
2018-Jun-19 02:00N 33°44' W 118°17'1 1.3
2018-Jun-19 01:30N 33°44' W 118°17'1 2.4
2018-Jun-19 01:00N 33°46' W 118°16'0 0.3
2018-Jun-19 00:30N 33°45' W 118°16'0 0.7
2018-Jun-19 00:00N 33°46' W 118°17'0 0.1
2018-Jun-18 23:30N 33°45' W 118°17'2 3.1
2018-Jun-18 23:00N 33°44' W 118°16'2 3.3
2018-Jun-18 22:30N 33°43' W 118°15'1 1.3
2018-Jun-18 22:00N 33°43' W 118°16'2 3.5
2018-Jun-18 21:30N 33°45' W 118°16'0 0.7
2018-Jun-18 21:01N 33°45' W 118°16'1 2.1
2018-Jun-18 20:30N 33°44' W 118°17'2 4.0
2018-Jun-18 20:00N 33°43' W 118°15'1 1.9
2018-Jun-18 19:30N 33°43' W 118°16'1 1.9
2018-Jun-18 19:00N 33°44' W 118°17'0 0.0
2018-Jun-18 18:30N 33°44' W 118°17'0 0.0
2018-Jun-18 18:00N 33°44' W 118°17'0 0.0
2018-Jun-18 17:30N 33°44' W 118°17'0 0.0
2018-Jun-18 17:00N 33°44' W 118°17'0 0.0
2018-Jun-18 16:29N 33°44' W 118°17'0 0.0
2018-Jun-18 16:00N 33°44' W 118°17'1 2.8
2018-Jun-18 15:30N 33°45' W 118°16'0 0.1
2018-Jun-18 15:00N 33°45' W 118°16'1 1.1
2018-Jun-18 14:30N 33°45' W 118°16'1 1.8
2018-Jun-18 14:00N 33°44' W 118°17'0 0.0
2018-Jun-18 13:30N 33°44' W 118°17'0 0.0
2018-Jun-18 13:00N 33°44' W 118°17'0 0.0
2018-Jun-18 12:30N 33°44' W 118°17'0 0.0
2018-Jun-18 12:00N 33°44' W 118°17'0 0.0
2018-Jun-18 11:30N 33°44' W 118°17'0 0.0
2018-Jun-18 11:00N 33°44' W 118°17'0 0.0
2018-Jun-18 10:29N 33°44' W 118°17'0 0.0
2018-Jun-18 09:58N 33°44' W 118°17'0 0.0
2018-Jun-18 09:30N 33°44' W 118°17'0 0.0
2018-Jun-18 08:59N 33°44' W 118°17'0 0.0
2018-Jun-18 08:30N 33°44' W 118°17'0 0.0
2018-Jun-18 07:59N 33°44' W 118°17'0 0.0
2018-Jun-18 07:30N 33°44' W 118°17'0 0.0
2018-Jun-18 07:00N 33°44' W 118°17'0 0.0
2018-Jun-18 06:30N 33°44' W 118°17'0 0.0
2018-Jun-18 05:57N 33°44' W 118°17'0 0.0
2018-Jun-18 05:29N 33°44' W 118°17'0 0.0
2018-Jun-18 04:20N 33°44' W 118°17'0 0.0
2018-Jun-18 03:05N 33°44' W 118°17'0 0.0
2018-Jun-18 03:00N 33°44' W 118°17'2 3.7
2018-Jun-18 02:30N 33°43' W 118°15'3 5.2
2018-Jun-18 02:00N 33°45' W 118°12'1 2.6
2018-Jun-18 01:30N 33°44' W 118°13'3 5.4
2018-Jun-18 01:00N 33°44' W 118°17'0 0.0
2018-Jun-18 00:30N 33°44' W 118°17'0 0.0
2018-Jun-18 00:00N 33°44' W 118°17'0 0.0
2018-Jun-17 23:30N 33°44' W 118°17'0 0.0
2018-Jun-17 23:00N 33°44' W 118°17'0 0.0
2018-Jun-17 22:30N 33°44' W 118°17'0 0.0
2018-Jun-17 21:58N 33°44' W 118°17'0 0.0
2018-Jun-17 21:30N 33°44' W 118°17'0 0.0
2018-Jun-17 21:00N 33°44' W 118°17'0 0.0
2018-Jun-17 20:30N 33°44' W 118°17'0 0.0
2018-Jun-17 20:00N 33°44' W 118°17'0 0.0
2018-Jun-17 19:30N 33°44' W 118°17'0 0.0
2018-Jun-17 18:59N 33°44' W 118°17'0 0.0
2018-Jun-17 18:30N 33°44' W 118°17'0 0.0
2018-Jun-17 17:59N 33°44' W 118°17'0 0.0
2018-Jun-17 17:30N 33°44' W 118°17'0 0.0
2018-Jun-17 17:00N 33°44' W 118°17'0 0.0
2018-Jun-17 16:27N 33°44' W 118°17'0 0.0
2018-Jun-17 16:00N 33°44' W 118°17'0 0.0
2018-Jun-17 15:30N 33°44' W 118°17'0 0.0
2018-Jun-17 15:00N 33°44' W 118°17'1 2.0
2018-Jun-17 14:30N 33°45' W 118°16'0 0.6
2018-Jun-17 14:00N 33°45' W 118°16'1 2.8
2018-Jun-17 13:30N 33°44' W 118°16'2 3.2
2018-Jun-17 13:01N 33°43' W 118°15'3 6.9
2018-Jun-17 12:30N 33°44' W 118°11'1 1.0
2018-Jun-17 12:00N 33°44' W 118°12'1 1.1
2018-Jun-17 11:30N 33°44' W 118°12'0 0.0
2018-Jun-17 11:00N 33°44' W 118°12'1 1.7
2018-Jun-17 10:30N 33°44' W 118°13'3 6.0
2018-Jun-17 10:00N 33°44' W 118°16'0 0.3
2018-Jun-17 09:30N 33°44' W 118°17'0 0.0
2018-Jun-17 09:00N 33°44' W 118°17'0 0.0
2018-Jun-17 08:29N 33°44' W 118°17'0 0.0
2018-Jun-17 08:00N 33°44' W 118°17'0 0.0
2018-Jun-17 07:30N 33°44' W 118°17'0 0.0
2018-Jun-17 06:58N 33°44' W 118°17'0 0.0
2018-Jun-17 06:30N 33°44' W 118°17'0 0.0
2018-Jun-17 05:51N 33°44' W 118°17'0 0.0
2018-Jun-17 05:30N 33°44' W 118°17'0 0.0
2018-Jun-17 05:00N 33°44' W 118°17'0 0.0
2018-Jun-17 04:28N 33°44' W 118°17'0 0.0
2018-Jun-17 04:00N 33°44' W 118°17'0 0.0
2018-Jun-17 03:27N 33°44' W 118°17'0 0.0
2018-Jun-17 03:00N 33°44' W 118°17'0 0.0
2018-Jun-17 02:29N 33°44' W 118°17'2 4.3
2018-Jun-17 02:00N 33°43' W 118°14'3 5.8
2018-Jun-17 01:30N 33°46' W 118°13'1 1.5
2018-Jun-17 01:00N 33°46' W 118°14'0 0.1
2018-Jun-17 00:30N 33°46' W 118°14'3 5.5
2018-Jun-17 00:00N 33°43' W 118°14'2 4.7
2018-Jun-16 23:30N 33°44' W 118°17'0 0.0
2018-Jun-16 23:00N 33°44' W 118°17'0 0.0
2018-Jun-16 22:30N 33°44' W 118°17'0 0.0
2018-Jun-16 22:00N 33°44' W 118°17'0 0.0
2018-Jun-16 21:30N 33°44' W 118°17'0 0.0
2018-Jun-16 20:59N 33°44' W 118°17'0 0.0
2018-Jun-16 20:29N 33°44' W 118°17'0 0.0
2018-Jun-16 20:00N 33°44' W 118°17'0 0.0
2018-Jun-16 19:30N 33°44' W 118°17'0 0.0
2018-Jun-16 19:00N 33°44' W 118°17'0 0.0
2018-Jun-16 18:30N 33°44' W 118°17'0 0.0
2018-Jun-16 18:00N 33°44' W 118°17'0 0.0
2018-Jun-16 17:30N 33°44' W 118°17'0 0.0
2018-Jun-16 16:58N 33°44' W 118°17'0 0.0
2018-Jun-16 16:30N 33°44' W 118°17'0 0.0
2018-Jun-16 16:00N 33°44' W 118°17'0 0.0
2018-Jun-16 15:30N 33°44' W 118°17'1 1.9
2018-Jun-16 15:00N 33°45' W 118°16'1 2.4
2018-Jun-16 14:30N 33°46' W 118°16'0 0.1
2018-Jun-16 14:00N 33°46' W 118°16'1 1.7
2018-Jun-16 13:30N 33°45' W 118°16'1 0.1
2018-Jun-16 02:10N 33°44' W 118°17'0 0.0
2018-Jun-16 02:00N 33°44' W 118°17'0 0.0
2018-Jun-16 01:30N 33°44' W 118°17'0 0.0
2018-Jun-16 01:00N 33°44' W 118°17'0 0.0
2018-Jun-16 00:30N 33°44' W 118°17'0 0.0
2018-Jun-16 00:00N 33°44' W 118°17'0 0.0
2018-Jun-15 23:30N 33°44' W 118°17'0 0.0
2018-Jun-15 22:58N 33°44' W 118°17'0 0.0
2018-Jun-15 22:29N 33°44' W 118°17'0 0.0
2018-Jun-15 22:00N 33°44' W 118°17'0 0.0
2018-Jun-15 21:30N 33°44' W 118°17'0 0.0
2018-Jun-15 21:00N 33°44' W 118°17'0 0.0
2018-Jun-15 20:29N 33°44' W 118°17'0 0.0
2018-Jun-15 20:00N 33°44' W 118°17'0 0.0
2018-Jun-15 19:28N 33°44' W 118°17'0 0.0
2018-Jun-15 18:59N 33°44' W 118°17'0 0.0
2018-Jun-15 18:29N 33°44' W 118°17'0 0.0
2018-Jun-15 18:00N 33°44' W 118°17'0 0.0
2018-Jun-15 17:30N 33°44' W 118°17'0 0.0
2018-Jun-15 16:59N 33°44' W 118°17'0 0.0
2018-Jun-15 16:31N 33°44' W 118°17'0 0.0
2018-Jun-15 16:00N 33°44' W 118°17'  

Dump ship's entire track history